createdAt,value
2022-12-01T11:00:12.019Z,8.50
2022-12-01T11:02:57.895Z,7.60
2022-12-01T11:03:08.812Z,7.90
2022-12-01T11:03:22.047Z,8.30
2022-12-01T11:03:30.863Z,8.60
2022-12-01T11:03:41.201Z,8.70
2022-12-01T11:03:51.932Z,8.50
2022-12-01T11:04:02.678Z,8.70
2022-12-01T11:04:13.354Z,8.50
2022-12-01T11:04:24.068Z,8.30
2022-12-01T11:06:49.713Z,8.20
2022-12-01T11:08:51.359Z,8.40
2022-12-01T11:10:52.622Z,8.20
2022-12-01T11:12:52.732Z,7.70
2022-12-01T11:14:53.340Z,7.70
2022-12-01T11:16:54.158Z,7.60
2022-12-01T11:18:54.846Z,8.00
2022-12-01T11:20:55.448Z,7.10
2022-12-01T11:22:56.052Z,7.30
2022-12-01T11:24:56.644Z,6.90
2022-12-01T11:26:57.257Z,7.00
2022-12-01T11:28:57.845Z,6.60
2022-12-01T11:30:58.430Z,6.50
2022-12-01T11:32:59.019Z,6.80
2022-12-01T11:34:59.583Z,6.50
2022-12-01T11:37:00.158Z,6.70
2022-12-01T11:39:00.775Z,6.70
2022-12-01T11:41:01.339Z,6.00
2022-12-01T11:43:01.918Z,6.50
2022-12-01T11:45:02.478Z,6.50
2022-12-01T11:47:22.148Z,6.20
2022-12-01T11:49:03.559Z,6.10
2022-12-01T11:51:04.135Z,6.50
2022-12-01T11:53:04.713Z,6.50
2022-12-01T11:55:09.967Z,5.80
2022-12-01T11:57:32.400Z,6.70
2022-12-01T11:59:06.288Z,5.90
2022-12-01T12:01:06.926Z,5.90
2022-12-01T12:03:07.589Z,6.00
2022-12-01T12:05:08.152Z,6.10
2022-12-01T12:07:08.730Z,6.00
2022-12-01T12:09:09.374Z,5.60
2022-12-01T12:11:10.107Z,6.20
2022-12-01T12:13:10.679Z,6.20
2022-12-01T12:15:11.236Z,5.90
2022-12-01T12:17:11.823Z,5.50
2022-12-01T12:19:12.379Z,5.90
2022-12-01T12:21:12.944Z,5.50
2022-12-01T12:23:13.503Z,5.60
2022-12-01T12:25:14.044Z,5.60
2022-12-01T12:27:14.613Z,5.80
2022-12-01T12:29:15.183Z,5.80
2022-12-01T12:31:15.778Z,6.00
2022-12-01T12:33:16.331Z,5.80
2022-12-01T12:35:16.900Z,6.30
2022-12-01T12:37:17.475Z,5.90
2022-12-01T12:39:18.033Z,6.20
2022-12-01T12:41:18.649Z,5.70
2022-12-01T12:43:19.233Z,6.60
2022-12-01T12:45:19.878Z,5.90
2022-12-01T12:47:20.447Z,6.70
2022-12-01T12:49:21.264Z,6.10
2022-12-01T12:51:21.420Z,5.50
2022-12-01T12:53:21.981Z,6.10
2022-12-01T12:55:22.564Z,6.50
2022-12-01T12:59:18.934Z,6.10
2022-12-01T13:01:20.888Z,6.00
2022-12-01T13:03:21.604Z,6.00
2022-12-01T13:05:22.296Z,6.30
2022-12-01T13:07:23.043Z,6.70
2022-12-01T13:09:23.755Z,5.90
2022-12-01T13:11:24.454Z,6.00
2022-12-01T13:13:25.159Z,5.80
2022-12-01T13:15:25.906Z,5.70
2022-12-01T13:17:26.608Z,5.80
2022-12-01T13:19:27.306Z,5.80
2022-12-01T13:21:34.104Z,6.20
2022-12-01T13:23:28.836Z,6.00
2022-12-01T13:25:29.508Z,5.70
2022-12-01T13:27:30.230Z,6.30
2022-12-01T13:29:30.949Z,5.00
2022-12-01T13:31:31.809Z,5.40
2022-12-01T13:33:32.548Z,5.40
2022-12-01T13:35:33.274Z,5.50
2022-12-01T13:37:33.974Z,5.70
2022-12-01T13:39:34.671Z,5.00
2022-12-01T13:41:35.395Z,5.60
2022-12-01T13:43:36.106Z,5.20
2022-12-01T13:45:36.862Z,5.50
2022-12-01T13:47:37.548Z,5.60
2022-12-01T13:49:38.313Z,5.40
2022-12-01T13:51:39.003Z,5.50
2022-12-01T13:53:39.795Z,5.10
2022-12-01T13:55:40.476Z,5.40
2022-12-01T13:57:41.180Z,5.00
2022-12-01T13:59:41.896Z,5.20
2022-12-01T14:01:42.636Z,5.30
2022-12-01T14:03:43.350Z,5.40
2022-12-01T14:05:44.045Z,5.50
2022-12-01T14:07:44.804Z,5.40
2022-12-01T14:09:45.543Z,5.80
2022-12-01T14:11:46.251Z,5.20
2022-12-01T14:13:46.955Z,5.20
2022-12-01T14:15:47.698Z,5.30
2022-12-01T14:17:48.384Z,6.10
2022-12-01T14:19:49.124Z,5.40
2022-12-01T14:21:49.836Z,5.60
2022-12-01T14:23:50.538Z,6.00
2022-12-01T14:25:51.243Z,5.80
2022-12-01T14:27:51.949Z,5.80
2022-12-01T14:29:52.651Z,5.50
2022-12-01T14:31:53.363Z,5.30
2022-12-01T14:33:54.069Z,5.40
2022-12-01T14:35:54.781Z,5.90
2022-12-01T14:37:55.477Z,5.50
2022-12-01T14:39:56.177Z,5.50
2022-12-01T14:41:58.690Z,5.30
